Time;durP1;ratioP1;P1;durP2;ratioP2;P2;SDS_P1;SDS_P2;PMS_P1;PMS_P2;Temp;Humidity;BMP_temperature;BMP_pressure;BME280_temperature;BME280_humidity;BME280_pressure;Samples;Min_cycle;Max_cycle;Signal;HPM_P1;HPM_P2
2022/04/01 00:01:49;;;;;;;4.07;1.20;;;0.50;99.90;;;;;;5130802;27;20031;-71
2022/04/01 00:04:15;;;;;;;5.50;1.52;;;1.60;99.90;;;;;;5131463;27;20077;-71
2022/04/01 00:06:41;;;;;;;3.20;1.10;;;0.50;99.90;;;;;;5130601;28;20095;-70
2022/04/01 00:09:06;;;;;;;4.22;1.25;;;0.50;99.90;;;;;;5130939;28;20039;-72
2022/04/01 00:11:32;;;;;;;3.22;0.98;;;0.60;99.90;;;;;;5130350;28;20083;-73
2022/04/01 00:13:58;;;;;;;4.47;1.13;;;0.60;99.90;;;;;;5130881;28;20103;-71
2022/04/01 00:16:24;;;;;;;4.50;1.33;;;0.60;99.90;;;;;;5132261;27;20047;-70
2022/04/01 00:18:49;;;;;;;5.60;1.15;;;0.60;99.90;;;;;;5132637;27;20110;-71
2022/04/01 00:21:15;;;;;;;3.20;0.90;;;0.70;99.90;;;;;;5135062;27;20050;-71
2022/04/01 00:23:40;;;;;;;3.28;1.20;;;0.70;99.90;;;;;;5134891;27;20401;-71
2022/04/01 00:26:06;;;;;;;3.22;1.10;;;0.70;99.90;;;;;;5117265;27;20398;-71
2022/04/01 00:28:32;;;;;;;3.53;1.00;;;0.80;99.90;;;;;;5134712;27;20520;-73
2022/04/01 00:30:58;;;;;;;2.47;0.95;;;0.70;99.90;;;;;;5134593;27;20617;-72
2022/04/01 00:33:24;;;;;;;6.10;0.93;;;0.70;99.90;;;;;;5134210;27;20047;-71
2022/04/01 00:35:50;;;;;;;3.42;1.20;;;0.70;99.90;;;;;;5135919;27;20058;-70
2022/04/01 00:38:16;;;;;;;2.88;1.17;;;0.80;99.90;;;;;;5134655;27;20481;-72
2022/04/01 00:40:42;;;;;;;5.90;1.10;;;0.70;99.90;;;;;;5115905;27;20122;-72
2022/04/01 00:43:08;;;;;;;2.63;1.00;;;0.80;99.90;;;;;;5135290;27;20447;-71
2022/04/01 00:45:33;;;;;;;3.47;1.00;;;0.80;99.90;;;;;;5134327;27;20043;-72
2022/04/01 00:48:02;;;;;;;1.98;0.90;;;0.80;99.90;;;;;;5116040;27;20043;-71
2022/04/01 00:50:32;;;;;;;4.15;1.35;;;0.80;99.90;;;;;;5135260;27;20126;-73
2022/04/01 00:52:58;;;;;;;2.70;1.10;;;0.80;99.90;;;;;;5115763;27;20051;-73
2022/04/01 00:55:25;;;;;;;4.10;1.27;;;0.80;99.90;;;;;;5134195;27;20471;-71
2022/04/01 00:57:51;;;;;;;4.30;1.30;;;0.80;99.90;;;;;;5133805;27;20062;-71
2022/04/01 01:00:19;;;;;;;4.13;1.48;;;0.80;99.90;;;;;;5134897;27;20073;-73
2022/04/01 01:02:45;;;;;;;2.42;1.00;;;0.80;99.90;;;;;;5115662;27;20446;-73
2022/04/01 01:05:10;;;;;;;2.40;1.10;;;0.80;99.90;;;;;;5115622;27;20043;-72
2022/04/01 01:07:42;;;;;;;3.75;1.10;;;1.30;99.90;;;;;;5133853;27;20107;-70
2022/04/01 01:10:10;;;;;;;2.05;0.98;;;0.80;99.90;;;;;;5133713;27;20043;-71
2022/04/01 01:12:37;;;;;;;2.88;1.17;;;0.80;99.90;;;;;;5134480;27;20051;-71
2022/04/01 01:15:11;;;;;;;4.18;1.25;;;0.80;99.90;;;;;;5133448;27;20055;-71
2022/04/01 01:17:39;;;;;;;2.67;1.00;;;0.80;99.90;;;;;;5133535;27;20039;-72
2022/04/01 01:20:12;;;;;;;3.67;1.10;;;0.80;99.90;;;;;;5133713;27;20035;-70
2022/04/01 01:22:39;;;;;;;3.72;1.17;;;0.80;99.90;;;;;;5134777;27;20112;-74
2022/04/01 01:25:08;;;;;;;3.42;1.17;;;0.80;99.90;;;;;;5133738;27;20043;-71
2022/04/01 01:27:33;;;;;;;2.53;0.95;;;0.80;99.90;;;;;;5133515;27;20055;-71
2022/04/01 01:30:02;;;;;;;5.45;1.42;;;0.80;99.90;;;;;;5113805;27;20612;-70
2022/04/01 01:32:29;;;;;;;3.95;1.13;;;0.80;99.90;;;;;;5134339;27;20058;-72
2022/04/01 01:34:56;;;;;;;2.67;1.35;;;0.80;99.90;;;;;;5114449;27;20047;-71
2022/04/01 01:37:22;;;;;;;3.63;1.23;;;0.80;99.90;;;;;;5134682;27;20414;-72
2022/04/01 01:39:48;;;;;;;5.85;1.60;;;0.80;99.90;;;;;;5114957;27;20060;-71
2022/04/01 01:42:15;;;;;;;10.45;1.17;;;0.80;99.90;;;;;;5133174;27;20172;-71
2022/04/01 01:44:41;;;;;;;3.50;0.95;;;0.80;99.90;;;;;;5133861;27;20044;-71
2022/04/01 01:47:07;;;;;;;3.28;1.30;;;0.80;99.90;;;;;;5132941;27;20046;-72
2022/04/01 01:49:33;;;;;;;2.13;1.00;;;0.90;99.90;;;;;;5133282;27;20046;-72
2022/04/01 01:54:45;;;;;;;4.88;1.70;;;0.90;99.90;;;;;;5134276;27;20133;-72
2022/04/01 01:57:13;;;;;;;3.53;1.38;;;0.90;99.90;;;;;;5132899;27;20046;-71
2022/04/01 01:59:39;;;;;;;3.50;1.33;;;0.90;99.90;;;;;;5132390;27;20422;-72
2022/04/01 02:02:06;;;;;;;4.53;1.35;;;0.90;99.90;;;;;;5145826;27;20038;-73
2022/04/01 02:04:34;;;;;;;5.22;1.25;;;1.00;99.90;;;;;;5152824;27;20089;-71
2022/04/01 02:07:00;;;;;;;3.30;1.30;;;1.20;99.90;;;;;;5153592;27;20628;-71
2022/04/01 02:09:26;;;;;;;4.65;1.13;;;1.00;99.90;;;;;;5153228;27;20077;-70
2022/04/01 02:11:52;;;;;;;4.50;1.30;;;1.00;99.90;;;;;;5151500;27;20045;-71
2022/04/01 02:14:18;;;;;;;2.72;1.23;;;1.00;99.90;;;;;;5153220;27;20054;-72
2022/04/01 02:16:43;;;;;;;2.40;1.13;;;1.00;99.90;;;;;;5152498;27;20063;-70
2022/04/01 02:19:11;;;;;;;5.55;1.52;;;1.00;99.90;;;;;;5134370;27;20058;-72
2022/04/01 02:21:39;;;;;;;6.45;1.40;;;1.10;99.90;;;;;;5152314;27;20042;-79
2022/04/01 02:24:06;;;;;;;7.30;1.75;;;1.70;99.90;;;;;;5135980;27;20477;-73
2022/04/01 02:26:34;;;;;;;4.47;1.20;;;1.10;99.90;;;;;;5133517;27;20028;-71
2022/04/01 02:29:03;;;;;;;5.22;1.25;;;1.10;99.90;;;;;;5141778;27;20054;-74
2022/04/01 02:31:29;;;;;;;7.40;1.30;;;1.10;99.90;;;;;;5138722;27;20050;-72
2022/04/01 02:33:55;;;;;;;5.43;1.40;;;1.10;99.90;;;;;;5132337;27;20078;-71
2022/04/01 02:36:21;;;;;;;5.75;1.33;;;1.10;99.90;;;;;;5132752;27;20143;-74
2022/04/01 02:38:47;;;;;;;5.93;1.60;;;1.10;99.90;;;;;;5137568;27;20051;-75
2022/04/01 02:41:12;;;;;;;6.40;2.15;;;1.10;99.90;;;;;;5140901;27;20043;-74
2022/04/01 02:43:38;;;;;;;7.95;2.83;;;1.10;99.90;;;;;;5134342;27;20078;-73
2022/04/01 02:46:05;;;;;;;7.03;2.67;;;1.10;99.90;;;;;;5152276;27;20070;-73
2022/04/01 02:48:31;;;;;;;6.30;2.63;;;1.10;99.90;;;;;;5152597;27;20678;-72
2022/04/01 02:50:57;;;;;;;9.25;2.88;;;1.20;99.90;;;;;;5137116;27;20039;-73
2022/04/01 02:53:23;;;;;;;8.48;2.70;;;1.20;99.90;;;;;;5131824;27;20454;-72
2022/04/01 02:55:50;;;;;;;7.00;2.30;;;1.20;99.90;;;;;;5131971;27;20398;-73
2022/04/01 02:58:16;;;;;;;6.75;2.47;;;1.20;99.90;;;;;;5131844;27;20055;-71
2022/04/01 03:00:42;;;;;;;5.13;2.00;;;1.10;99.90;;;;;;5131526;27;20051;-72
2022/04/01 03:03:08;;;;;;;6.32;1.80;;;1.10;99.90;;;;;;5133280;27;20035;-71
2022/04/01 03:05:38;;;;;;;6.40;1.35;;;1.10;99.90;;;;;;5113258;27;20493;-71
2022/04/01 03:08:06;;;;;;;6.95;1.30;;;1.10;99.90;;;;;;5137259;27;20096;-71
2022/04/01 03:10:35;;;;;;;5.75;1.35;;;1.20;99.90;;;;;;5152107;27;20042;-71
2022/04/01 03:13:01;;;;;;;3.78;1.80;;;1.10;99.90;;;;;;5150201;27;20050;-72
2022/04/01 03:15:30;;;;;;;5.65;1.45;;;1.10;99.90;;;;;;5152045;27;20531;-71
2022/04/01 03:17:57;;;;;;;6.68;1.10;;;2.40;99.90;;;;;;5151702;27;20130;-74
2022/04/01 03:20:23;;;;;;;4.57;1.20;;;1.10;99.90;;;;;;5150136;27;20117;-72
2022/04/01 03:22:50;;;;;;;2.75;1.10;;;1.10;99.90;;;;;;5149999;27;20053;-72
2022/04/01 03:25:20;;;;;;;4.15;1.45;;;1.20;99.90;;;;;;5150986;27;20042;-75
2022/04/01 03:27:47;;;;;;;4.10;1.30;;;1.10;99.90;;;;;;5151766;27;20117;-72
2022/04/01 03:30:14;;;;;;;3.75;1.20;;;1.20;99.90;;;;;;5138208;27;20059;-71
2022/04/01 03:32:41;;;;;;;2.33;0.90;;;1.20;99.90;;;;;;5151650;27;20404;-74
2022/04/01 03:35:14;;;;;;;7.57;1.42;;;1.20;99.90;;;;;;5142763;27;20043;-72
2022/04/01 03:37:41;;;;;;;4.15;1.02;;;1.20;99.90;;;;;;5130993;27;20050;-72
2022/04/01 03:40:08;;;;;;;3.17;0.90;;;1.20;99.90;;;;;;5130757;27;20124;-72
2022/04/01 03:42:34;;;;;;;9.02;1.13;;;1.20;99.90;;;;;;5144621;27;20082;-73
2022/04/01 03:45:06;;;;;;;3.80;1.00;;;1.20;99.90;;;;;;5149998;27;20070;-73
2022/04/01 03:47:44;;;;;;;4.32;0.93;;;1.20;99.90;;;;;;5151327;27;20051;-73
2022/04/01 03:50:11;;;;;;;8.40;1.10;;;1.20;99.90;;;;;;5150967;27;20039;-72
2022/04/01 03:52:38;;;;;;;7.78;1.30;;;1.20;99.90;;;;;;5131013;27;20035;-71
2022/04/01 03:55:06;;;;;;;2.53;0.88;;;1.20;99.90;;;;;;5148055;27;20113;-72
2022/04/01 03:57:36;;;;;;;3.47;1.05;;;1.20;99.90;;;;;;5151263;27;20524;-70
2022/04/01 04:00:04;;;;;;;5.22;0.90;;;1.20;99.90;;;;;;5150997;27;20089;-72
2022/04/01 04:02:33;;;;;;;3.05;1.02;;;1.20;99.90;;;;;;5151047;27;20095;-72
2022/04/01 04:05:00;;;;;;;3.40;0.90;;;1.20;99.90;;;;;;5149219;27;20046;-71
2022/04/01 04:07:26;;;;;;;4.20;1.20;;;1.20;99.90;;;;;;5151351;27;20125;-72
2022/04/01 04:09:53;;;;;;;3.85;1.27;;;1.20;99.90;;;;;;5132930;27;20058;-70
2022/04/01 04:12:20;;;;;;;2.75;1.30;;;1.30;99.90;;;;;;5150807;27;20508;-71
2022/04/01 04:14:49;;;;;;;2.22;0.88;;;1.30;99.90;;;;;;5132500;27;20121;-71
2022/04/01 04:17:27;;;;;;;4.13;1.10;;;1.20;99.90;;;;;;5149454;27;20057;-72
2022/04/01 04:20:15;;;;;;;5.68;1.80;;;1.20;99.90;;;;;;5142126;27;20050;-71
2022/04/01 04:23:16;;;;;;;5.38;0.82;;;1.20;99.90;;;;;;5136917;27;20046;-73
2022/04/01 04:25:53;;;;;;;3.22;1.23;;;1.30;99.90;;;;;;5151080;27;20422;-73
2022/04/01 04:28:25;;;;;;;8.15;1.00;;;1.30;99.90;;;;;;5149228;27;20038;-71
2022/04/01 04:30:53;;;;;;;5.50;1.00;;;1.30;99.90;;;;;;5150771;27;20042;-73
2022/04/01 04:33:23;;;;;;;7.32;1.20;;;1.30;99.90;;;;;;5150766;27;20043;-73
2022/04/01 04:35:49;;;;;;;3.80;1.08;;;1.30;99.90;;;;;;5150508;27;20085;-73
2022/04/01 04:38:20;;;;;;;4.43;1.10;;;1.30;99.90;;;;;;5113488;27;20111;-71
2022/04/01 04:40:46;;;;;;;6.22;1.40;;;1.30;99.90;;;;;;5150960;27;20094;-71
2022/04/01 04:43:18;;;;;;;3.05;1.02;;;1.40;99.90;;;;;;5150735;27;20035;-71
2022/04/01 04:45:46;;;;;;;4.30;1.08;;;1.30;99.90;;;;;;5150714;27;20125;-73
2022/04/01 04:48:13;;;;;;;3.92;0.90;;;1.30;99.90;;;;;;5149104;27;20552;-72
2022/04/01 04:50:47;;;;;;;2.60;1.20;;;1.30;99.90;;;;;;5151154;27;20038;-71
2022/04/01 04:53:14;;;;;;;3.45;1.05;;;1.30;99.90;;;;;;5149339;27;20045;-70
2022/04/01 04:55:41;;;;;;;3.53;1.23;;;1.40;99.90;;;;;;5151360;27;20034;-71
2022/04/01 04:58:10;;;;;;;4.82;1.00;;;1.40;99.90;;;;;;5131176;27;20087;-71
2022/04/01 05:00:38;;;;;;;5.25;1.20;;;1.40;99.90;;;;;;5150321;27;20035;-71
2022/04/01 05:03:16;;;;;;;2.40;1.10;;;1.40;99.90;;;;;;5150775;27;20039;-71
2022/04/01 05:05:47;;;;;;;5.28;1.08;;;1.40;99.90;;;;;;5135131;27;20051;-73
2022/04/01 05:08:22;;;;;;;7.38;1.38;;;1.40;99.90;;;;;;5154465;27;20081;-70
2022/04/01 05:11:10;;;;;;;4.25;1.20;;;1.40;99.90;;;;;;5153751;27;20070;-71
2022/04/01 05:14:00;;;;;;;6.93;1.38;;;1.40;99.90;;;;;;5154226;27;20477;-73
2022/04/01 05:16:54;;;;;;;7.57;1.15;;;1.40;99.90;;;;;;5136201;27;20059;-73
2022/04/01 05:19:26;;;;;;;5.25;0.90;;;1.40;99.90;;;;;;5151221;27;20051;-73
2022/04/01 05:22:03;;;;;;;3.35;1.05;;;1.40;99.90;;;;;;5153571;27;20039;-72
2022/04/01 05:24:59;;;;;;;7.53;1.52;;;1.40;99.90;;;;;;5115702;27;20047;-74
2022/04/01 05:27:28;;;;;;;3.22;1.05;;;1.40;99.90;;;;;;5134000;27;20398;-75
2022/04/01 05:30:12;;;;;;;7.00;1.35;;;1.40;99.90;;;;;;5134829;27;20067;-76
2022/04/01 05:32:59;;;;;;;5.32;1.20;;;1.40;99.90;;;;;;5134342;27;20458;-77
2022/04/01 05:35:35;;;;;;;2.97;0.98;;;1.40;99.90;;;;;;5133087;27;20134;-73
2022/04/01 05:38:01;;;;;;;4.70;1.30;;;1.40;99.90;;;;;;5133153;27;20039;-73
2022/04/01 05:40:30;;;;;;;3.90;1.10;;;1.50;99.90;;;;;;5133451;27;20057;-74
2022/04/01 05:42:57;;;;;;;3.38;1.10;;;1.50;99.90;;;;;;5116358;27;20055;-75
2022/04/01 05:45:27;;;;;;;3.55;1.33;;;1.50;99.90;;;;;;5134591;27;20073;-73
2022/04/01 05:47:54;;;;;;;3.80;1.20;;;1.50;99.90;;;;;;5133371;27;20078;-76
2022/04/01 05:50:22;;;;;;;4.47;0.90;;;1.50;99.90;;;;;;5133272;27;20050;-72
2022/04/01 05:52:50;;;;;;;2.78;1.27;;;1.60;99.90;;;;;;5114447;27;20051;-74
2022/04/01 05:55:17;;;;;;;2.55;0.75;;;1.60;99.90;;;;;;5133869;27;20039;-75
2022/04/01 05:57:44;;;;;;;7.10;0.98;;;1.80;99.90;;;;;;5114371;27;20051;-71
2022/04/01 06:00:13;;;;;;;6.03;1.42;;;1.60;99.90;;;;;;5132758;27;20481;-72
2022/04/01 06:02:47;;;;;;;6.03;1.15;;;1.60;99.90;;;;;;5133013;27;20027;-75
2022/04/01 06:05:16;;;;;;;3.47;1.10;;;1.60;99.90;;;;;;5133755;27;20091;-75
2022/04/01 06:08:10;;;;;;;5.38;1.05;;;1.60;99.90;;;;;;5114301;27;20215;-74
2022/04/01 06:10:50;;;;;;;3.83;1.05;;;1.60;99.90;;;;;;5146446;27;20095;-71
2022/04/01 06:13:24;;;;;;;4.90;1.17;;;1.70;99.90;;;;;;5152850;27;20050;-72
2022/04/01 06:16:12;;;;;;;5.05;0.90;;;1.70;99.90;;;;;;5151439;27;20133;-73
2022/04/01 06:18:55;;;;;;;4.18;1.10;;;1.70;99.90;;;;;;5151557;27;20404;-73
2022/04/01 06:21:25;;;;;;;3.20;1.35;;;1.70;99.90;;;;;;5152957;27;20063;-73
2022/04/01 06:24:10;;;;;;;5.38;1.30;;;1.70;99.90;;;;;;5134565;27;20043;-71
2022/04/01 06:26:46;;;;;;;4.15;1.30;;;1.70;99.90;;;;;;5141684;27;20508;-72
2022/04/01 06:29:19;;;;;;;2.63;0.88;;;1.70;99.90;;;;;;5152773;27;20077;-73
2022/04/01 06:31:52;;;;;;;2.90;1.10;;;1.80;99.90;;;;;;5152556;27;20078;-72
2022/04/01 06:34:48;;;;;;;3.03;0.95;;;1.80;99.90;;;;;;5149008;27;20047;-72
2022/04/01 06:37:22;;;;;;;1.80;1.13;;;1.80;99.90;;;;;;5123814;27;20058;-71
2022/04/01 06:40:10;;;;;;;3.80;1.02;;;1.80;99.90;;;;;;5131988;27;20047;-72
2022/04/01 06:42:37;;;;;;;2.67;1.27;;;1.80;99.90;;;;;;5113517;27;20054;-72
2022/04/01 06:45:15;;;;;;;3.67;1.17;;;2.10;99.90;;;;;;5138139;27;20418;-72
2022/04/01 06:47:41;;;;;;;4.43;1.00;;;1.90;99.90;;;;;;5144235;27;20134;-71
2022/04/01 06:50:09;;;;;;;6.10;1.60;;;1.90;99.90;;;;;;5134361;27;20452;-71
2022/04/01 06:52:36;;;;;;;5.30;1.20;;;1.90;99.90;;;;;;5152476;27;20050;-71
2022/04/01 06:55:02;;;;;;;10.48;1.10;;;2.00;99.90;;;;;;5152751;27;20042;-72
2022/04/01 06:57:27;;;;;;;2.92;0.90;;;2.00;99.90;;;;;;5152543;27;20046;-71
2022/04/01 06:59:54;;;;;;;5.55;1.00;;;2.00;99.90;;;;;;5135091;27;20095;-72
2022/04/01 07:02:20;;;;;;;2.80;0.85;;;2.00;99.90;;;;;;5131418;27;20051;-71
2022/04/01 07:04:46;;;;;;;1.70;0.60;;;2.20;99.90;;;;;;5131393;27;20122;-71
2022/04/01 07:07:12;;;;;;;2.17;0.65;;;2.00;99.90;;;;;;5131387;27;20122;-71
2022/04/01 07:09:38;;;;;;;0.95;0.65;;;2.00;99.90;;;;;;5133028;27;20427;-72
2022/04/01 07:12:04;;;;;;;1.40;0.70;;;1.90;99.90;;;;;;5131243;27;20125;-72
2022/04/01 07:14:31;;;;;;;3.20;0.73;;;2.10;99.90;;;;;;5136606;27;20089;-71
2022/04/01 07:17:01;;;;;;;3.88;1.00;;;2.10;99.90;;;;;;5150646;27;20046;-72
2022/04/01 07:19:28;;;;;;;3.78;0.80;;;2.10;99.90;;;;;;5145735;27;20043;-72
2022/04/01 07:21:54;;;;;;;3.08;0.80;;;2.10;99.90;;;;;;5131176;27;20108;-72
2022/04/01 07:24:20;;;;;;;2.60;0.70;;;2.10;99.90;;;;;;5131186;27;20047;-71
2022/04/01 07:26:47;;;;;;;2.45;0.80;;;2.90;99.90;;;;;;5131054;27;20062;-71
2022/04/01 07:29:14;;;;;;;2.95;0.80;;;2.20;99.90;;;;;;5130967;27;20383;-72
2022/04/01 07:34:37;;;;;;;3.67;0.70;;;2.90;99.90;;;;;;5131161;27;20054;-72
2022/04/01 07:37:04;;;;;;;5.05;1.00;;;3.00;99.90;;;;;;5131199;27;20440;-74
2022/04/01 07:39:31;;;;;;;2.40;0.80;;;2.10;99.90;;;;;;5112555;27;20147;-75
2022/04/01 07:41:56;;;;;;;3.58;0.80;;;2.00;99.90;;;;;;5132051;27;20034;-73
2022/04/01 07:44:22;;;;;;;2.08;0.85;;;2.20;99.90;;;;;;5130624;27;20046;-72
2022/04/01 07:46:49;;;;;;;4.22;1.05;;;2.20;99.90;;;;;;5131532;27;20118;-72
2022/04/01 07:49:16;;;;;;;2.97;0.85;;;2.10;99.90;;;;;;5130912;27;20046;-73
2022/04/01 07:51:43;;;;;;;1.73;0.85;;;3.20;99.90;;;;;;5112301;27;20099;-78
2022/04/01 07:54:11;;;;;;;5.30;1.00;;;3.50;99.90;;;;;;5146499;27;20090;-72
2022/04/01 07:56:37;;;;;;;4.18;1.40;;;2.10;99.90;;;;;;5151337;27;20043;-74
2022/04/01 07:59:04;;;;;;;3.70;1.10;;;2.20;99.90;;;;;;5151179;27;20054;-74
2022/04/01 08:01:30;;;;;;;1.98;1.13;;;2.40;99.90;;;;;;5134545;27;20046;-72
2022/04/01 08:03:56;;;;;;;3.47;0.93;;;2.20;99.90;;;;;;5130884;27;20039;-71
2022/04/01 08:06:22;;;;;;;5.82;0.80;;;2.20;99.90;;;;;;5136955;27;20674;-71
2022/04/01 08:08:47;;;;;;;2.60;1.00;;;2.20;99.90;;;;;;5130919;28;20051;-70
2022/04/01 08:11:13;;;;;;;4.32;1.13;;;2.10;99.90;;;;;;5130761;28;20397;-72
2022/04/01 08:13:39;;;;;;;5.90;1.30;;;2.20;99.90;;;;;;5130329;28;20049;-70
2022/04/01 08:16:05;;;;;;;3.03;1.13;;;2.20;99.90;;;;;;5142346;27;20066;-71
2022/04/01 08:18:31;;;;;;;5.78;1.20;;;2.10;99.90;;;;;;5133633;27;20043;-73
2022/04/01 08:20:56;;;;;;;5.45;1.58;;;2.20;99.90;;;;;;5130694;28;20050;-73
2022/04/01 08:23:22;;;;;;;3.17;1.40;;;2.20;99.90;;;;;;5130514;28;20046;-73
2022/04/01 08:25:49;;;;;;;12.65;1.65;;;2.00;99.90;;;;;;5130401;28;20125;-74
2022/04/01 08:28:15;;;;;;;7.88;1.40;;;2.20;99.90;;;;;;5111835;28;20055;-74
2022/04/01 08:30:41;;;;;;;6.32;1.30;;;3.00;99.90;;;;;;5130141;28;20081;-74
2022/04/01 08:33:07;;;;;;;5.40;1.30;;;3.30;99.90;;;;;;5130667;28;20043;-74
2022/04/01 08:35:34;;;;;;;3.65;1.48;;;2.30;99.90;;;;;;5130199;28;20045;-73
2022/04/01 08:38:01;;;;;;;4.82;1.70;;;2.30;99.90;;;;;;5130407;28;20496;-76
2022/04/01 08:40:27;;;;;;;8.68;1.67;;;2.30;99.90;;;;;;5132814;27;20051;-73
2022/04/01 08:42:53;;;;;;;4.53;1.70;;;3.60;99.90;;;;;;5115509;27;20063;-75
2022/04/01 08:45:20;;;;;;;4.35;1.42;;;2.40;99.90;;;;;;5137619;27;20066;-74
2022/04/01 08:47:48;;;;;;;2.95;1.30;;;3.20;99.90;;;;;;5138523;27;20031;-74
2022/04/01 08:50:14;;;;;;;4.97;1.92;;;2.60;99.90;;;;;;5115594;27;20047;-73
2022/04/01 08:52:40;;;;;;;4.93;1.52;;;2.60;99.90;;;;;;5134140;27;20050;-75
2022/04/01 08:55:08;;;;;;;3.92;1.48;;;2.60;99.90;;;;;;5141104;27;20037;-74
2022/04/01 08:57:38;;;;;;;3.47;1.48;;;2.60;99.90;;;;;;5145068;27;20043;-74
2022/04/01 09:00:13;;;;;;;3.28;1.52;;;3.70;99.90;;;;;;5130253;27;20095;-72
2022/04/01 09:02:39;;;;;;;3.80;1.40;;;2.70;99.90;;;;;;5141901;27;20131;-74
2022/04/01 09:05:06;;;;;;;3.50;1.30;;;3.70;99.90;;;;;;5154380;27;20039;-76
2022/04/01 09:07:32;;;;;;;3.70;1.38;;;2.70;99.90;;;;;;5152940;27;20043;-78
2022/04/01 09:10:03;;;;;;;3.58;1.42;;;2.70;99.90;;;;;;5154711;27;20046;-74
2022/04/01 09:12:29;;;;;;;5.50;1.30;;;2.70;99.90;;;;;;5149371;27;20047;-72
2022/04/01 09:14:57;;;;;;;6.68;1.48;;;2.70;99.90;;;;;;5154336;27;20572;-73
2022/04/01 09:17:38;;;;;;;2.78;1.35;;;3.70;99.90;;;;;;5152961;27;20493;-74
2022/04/01 09:20:09;;;;;;;2.97;1.48;;;3.80;99.90;;;;;;5148922;27;20035;-72
2022/04/01 09:22:38;;;;;;;6.40;1.38;;;3.00;99.90;;;;;;5137315;27;20118;-74
2022/04/01 09:25:09;;;;;;;4.47;1.30;;;3.00;99.90;;;;;;5133397;27;20039;-72
2022/04/01 09:27:46;;;;;;;3.92;1.42;;;3.10;99.90;;;;;;5133518;27;20057;-73
2022/04/01 09:30:31;;;;;;;4.07;1.75;;;3.10;99.90;;;;;;5133597;27;20509;-72
2022/04/01 09:33:02;;;;;;;5.43;2.00;;;3.10;99.90;;;;;;5133099;27;20340;-74
2022/04/01 09:35:31;;;;;;;4.03;1.75;;;3.00;99.90;;;;;;5133169;27;20043;-73
2022/04/01 09:38:01;;;;;;;8.98;1.55;;;3.20;99.90;;;;;;5133959;27;20043;-73
2022/04/01 09:40:27;;;;;;;4.10;1.92;;;3.30;99.90;;;;;;5133671;27;20039;-72
2022/04/01 09:42:59;;;;;;;5.03;1.80;;;4.50;99.90;;;;;;5133417;27;20402;-78
2022/04/01 09:45:37;;;;;;;6.85;1.92;;;3.40;99.90;;;;;;5133082;27;20507;-75
2022/04/01 09:48:09;;;;;;;4.40;1.88;;;3.40;99.90;;;;;;5132615;27;20035;-78
2022/04/01 09:50:40;;;;;;;12.85;1.92;;;3.50;99.90;;;;;;5139565;27;20050;-77
2022/04/01 09:53:16;;;;;;;9.10;2.38;;;3.50;99.90;;;;;;5153804;27;20047;-76
2022/04/01 09:55:45;;;;;;;5.03;1.73;;;3.50;99.90;;;;;;5153303;27;20034;-75
2022/04/01 09:58:11;;;;;;;3.28;1.67;;;3.50;99.90;;;;;;5144053;27;20043;-76
2022/04/01 10:00:39;;;;;;;4.60;1.85;;;3.50;99.90;;;;;;5133808;27;20187;-78
2022/04/01 10:03:06;;;;;;;3.80;1.50;;;3.50;99.90;;;;;;5132626;27;20122;-77
2022/04/01 10:05:32;;;;;;;5.82;1.92;;;2.90;99.90;;;;;;5151476;27;20042;-74
2022/04/01 10:08:00;;;;;;;4.03;1.90;;;3.60;99.90;;;;;;5152691;27;20397;-74
2022/04/01 10:10:26;;;;;;;4.30;2.13;;;4.40;99.90;;;;;;5145270;27;20503;-74
2022/04/01 10:12:57;;;;;;;7.53;1.95;;;3.80;99.90;;;;;;5143086;27;20374;-75
2022/04/01 10:15:24;;;;;;;3.72;1.77;;;3.70;99.90;;;;;;5133953;27;20184;-75
2022/04/01 10:17:53;;;;;;;3.78;1.98;;;5.00;99.90;;;;;;5130159;27;20397;-75
2022/04/01 10:20:21;;;;;;;8.45;2.35;;;4.80;99.90;;;;;;5143371;27;20038;-79
2022/04/01 10:22:48;;;;;;;5.35;1.90;;;4.30;99.90;;;;;;5150027;27;20419;-77
2022/04/01 10:25:22;;;;;;;3.65;1.77;;;4.40;99.90;;;;;;5132812;27;20070;-72
2022/04/01 10:27:51;;;;;;;5.13;1.70;;;4.70;99.90;;;;;;5132325;27;20058;-78
2022/04/01 10:30:18;;;;;;;5.95;1.90;;;4.90;99.90;;;;;;5114811;27;20814;-72
2022/04/01 10:32:48;;;;;;;4.28;1.98;;;5.00;99.90;;;;;;5132265;27;20114;-75
2022/04/01 10:35:29;;;;;;;6.97;2.22;;;4.70;99.90;;;;;;5132070;27;20035;-74
2022/04/01 10:38:16;;;;;;;5.93;1.65;;;5.10;99.90;;;;;;5132098;27;20903;-75
2022/04/01 10:40:49;;;;;;;3.83;1.52;;;5.20;99.90;;;;;;5131440;27;20163;-72
2022/04/01 10:43:27;;;;;;;5.22;1.88;;;5.40;99.90;;;;;;5132227;27;20077;-72
2022/04/01 10:46:15;;;;;;;4.35;1.92;;;5.40;99.90;;;;;;5131973;27;20447;-75
2022/04/01 10:52:14;;;;;;;6.68;1.80;;;5.60;99.90;;;;;;5131729;27;20104;-74
2022/04/01 10:54:45;;;;;;;4.00;2.05;;;5.70;99.90;;;;;;5143545;27;20069;-76
2022/04/01 10:57:29;;;;;;;3.80;1.77;;;5.90;99.90;;;;;;5152446;27;20103;-78
2022/04/01 10:59:59;;;;;;;3.73;1.53;;;6.10;99.90;;;;;;5152668;27;20046;-76
2022/04/01 11:02:26;;;;;;;3.45;1.52;;;6.10;99.90;;;;;;5151593;27;20065;-74
2022/04/01 11:04:54;;;;;;;4.22;1.90;;;6.20;99.90;;;;;;5137508;27;20046;-73
2022/04/01 11:07:23;;;;;;;5.25;1.40;;;6.30;99.90;;;;;;5133822;27;20035;-74
2022/04/01 11:10:08;;;;;;;4.25;1.67;;;6.30;99.90;;;;;;5135733;27;20074;-74
2022/04/01 11:12:39;;;;;;;5.30;1.70;;;6.20;99.90;;;;;;5148689;27;20038;-79
2022/04/01 11:15:19;;;;;;;3.60;1.48;;;6.10;99.90;;;;;;5152253;27;20043;-75
2022/04/01 11:17:44;;;;;;;3.70;1.52;;;7.00;99.90;;;;;;5131578;27;20039;-77
2022/04/01 11:20:19;;;;;;;5.38;1.90;;;6.20;99.90;;;;;;5146670;27;20382;-75
2022/04/01 11:22:48;;;;;;;;;;;6.00;99.90;;;;;;5152237;27;20058;-75
2022/04/01 11:25:35;;;;;;;4.20;1.40;;;6.10;99.90;;;;;;5152382;27;20030;-74
2022/04/01 11:28:08;;;;;;;5.13;1.58;;;6.30;99.90;;;;;;5151626;27;20043;-73
2022/04/01 11:30:40;;;;;;;4.57;1.40;;;6.30;99.90;;;;;;5151290;27;20054;-76
2022/04/01 11:33:09;;;;;;;5.95;1.80;;;7.20;99.90;;;;;;5151013;27;20500;-76
2022/04/01 11:35:39;;;;;;;6.65;1.63;;;6.40;99.90;;;;;;5145648;27;20053;-75
2022/04/01 11:38:06;;;;;;;3.70;1.55;;;6.50;99.90;;;;;;5151536;27;20090;-73
2022/04/01 11:40:35;;;;;;;3.08;1.38;;;6.70;99.90;;;;;;5136217;27;20039;-75
2022/04/01 11:43:04;;;;;;;7.75;2.00;;;6.60;99.90;;;;;;5134638;27;20050;-75
2022/04/01 11:45:46;;;;;;;2.55;1.40;;;6.70;99.90;;;;;;5143873;27;20096;-73
2022/04/01 11:48:22;;;;;;;3.85;1.50;;;6.70;99.90;;;;;;5130941;27;20126;-77
2022/04/01 11:50:55;;;;;;;3.42;1.40;;;6.70;99.90;;;;;;5130827;27;20603;-73
2022/04/01 11:53:43;;;;;;;4.93;1.60;;;6.80;99.90;;;;;;5087753;22;20472;-73
2022/04/01 11:56:13;;;;;;;4.18;1.33;;;7.00;99.90;;;;;;5049618;28;20053;-76
2022/04/01 11:58:48;;;;;;;5.60;1.48;;;7.20;99.90;;;;;;5047902;28;20059;-75
2022/04/01 12:01:21;;;;;;;6.00;1.60;;;7.50;99.90;;;;;;5048110;28;20052;-76
2022/04/01 12:03:47;;;;;;;5.60;1.30;;;7.30;99.90;;;;;;5048360;28;20079;-73
2022/04/01 12:09:04;;;;;;;5.97;0.88;;;7.60;99.90;;;;;;5048868;28;20045;-73
2022/04/01 12:11:45;;;;;;;4.50;0.90;;;7.10;99.90;;;;;;5049626;28;20044;-75
2022/04/01 12:14:11;;;;;;;2.38;0.80;;;6.80;99.90;;;;;;5052810;28;20049;-73
2022/04/01 12:16:41;;;;;;;7.97;0.93;;;6.70;99.90;;;;;;5056176;28;20091;-81
2022/04/01 12:19:07;;;;;;;3.25;1.00;;;6.60;99.10;;;;;;5054458;28;20033;-77
2022/04/01 12:21:32;;;;;;;3.97;1.08;;;6.40;98.00;;;;;;5055956;28;20443;-78
2022/04/01 12:23:59;;;;;;;3.88;0.80;;;6.30;99.90;;;;;;5055913;28;20855;-74
2022/04/01 12:26:27;;;;;;;2.83;0.90;;;6.20;99.90;;;;;;5056053;28;20053;-75
2022/04/01 12:28:52;;;;;;;4.22;0.98;;;6.20;99.90;;;;;;5055304;28;20040;-81
2022/04/01 12:31:22;;;;;;;3.55;0.98;;;6.10;99.90;;;;;;5054521;28;20053;-78
2022/04/01 12:33:52;;;;;;;5.53;1.20;;;5.90;99.90;;;;;;5055412;28;20119;-73
2022/04/01 12:36:31;;;;;;;4.68;1.10;;;5.80;99.90;;;;;;5055788;28;20494;-73
2022/04/01 12:39:09;;;;;;;5.25;1.10;;;5.80;99.90;;;;;;5055730;28;20052;-74
2022/04/01 12:41:35;;;;;;;6.43;1.40;;;5.80;99.90;;;;;;5054438;28;20048;-72
2022/04/01 12:44:11;;;;;;;5.97;1.20;;;5.70;99.90;;;;;;5054464;28;20545;-71
2022/04/01 12:46:37;;;;;;;7.93;1.45;;;5.60;99.90;;;;;;5055244;28;20043;-72
2022/04/01 12:49:17;;;;;;;4.07;0.90;;;5.50;99.90;;;;;;5055992;28;20044;-72
2022/04/01 12:51:57;;;;;;;4.00;0.95;;;5.50;99.90;;;;;;5055824;28;20064;-70
2022/04/01 12:54:31;;;;;;;3.25;1.30;;;5.80;99.90;;;;;;5055678;28;20475;-71
2022/04/01 12:57:00;;;;;;;4.65;1.00;;;5.30;99.90;;;;;;5055863;28;20067;-71
2022/04/01 12:59:25;;;;;;;3.40;0.82;;;5.40;99.90;;;;;;5055925;28;20480;-72
2022/04/01 13:01:57;;;;;;;4.25;0.90;;;6.40;99.90;;;;;;5056160;28;20159;-71
2022/04/01 13:04:23;;;;;;;4.25;1.30;;;5.50;99.90;;;;;;5055102;28;20045;-76
2022/04/01 13:07:26;;;;;;;4.55;1.20;;;5.60;99.90;;;;;;5055790;28;20044;-73
2022/04/01 13:10:00;;;;;;;4.15;1.30;;;5.60;99.90;;;;;;5053872;28;20049;-71
2022/04/01 13:12:32;;;;;;;4.05;1.60;;;5.70;99.90;;;;;;5055440;28;20044;-72
2022/04/01 13:15:00;;;;;;;7.22;1.75;;;5.70;99.90;;;;;;5055508;28;20049;-72
2022/04/01 13:17:27;;;;;;;7.85;1.17;;;5.70;99.90;;;;;;5055642;28;20057;-73
2022/04/01 13:19:53;;;;;;;5.72;1.30;;;6.50;99.90;;;;;;5055753;28;20127;-73
2022/04/01 13:22:19;;;;;;;5.38;1.48;;;6.00;99.90;;;;;;5055594;28;20071;-74
2022/04/01 13:24:47;;;;;;;3.97;1.33;;;6.00;99.90;;;;;;5054843;28;20037;-73